createdAt,value
2022-08-10T00:01:26.263Z,67.40
2022-08-10T00:04:21.087Z,66.90
2022-08-10T00:07:08.950Z,66.60
2022-08-10T00:09:56.189Z,67.60
2022-08-10T00:12:53.779Z,68.70
2022-08-10T00:15:52.702Z,70.00
2022-08-10T00:18:43.349Z,71.30
2022-08-10T00:21:30.825Z,71.80
2022-08-10T00:24:18.748Z,71.70
2022-08-10T00:27:57.914Z,69.50
2022-08-10T00:30:14.144Z,71.60
2022-08-10T00:33:01.345Z,74.60
2022-08-10T00:35:50.471Z,76.90
2022-08-10T00:38:37.950Z,80.50
2022-08-10T00:41:25.136Z,84.90
2022-08-10T00:44:11.975Z,90.50
2022-08-10T00:47:00.875Z,90.90
2022-08-10T00:49:48.108Z,67.30
2022-08-10T00:52:37.646Z,67.40
2022-08-10T00:55:25.154Z,67.80
2022-08-10T00:58:12.708Z,67.80
2022-08-10T01:00:59.857Z,68.50
2022-08-10T01:04:54.318Z,68.80
2022-08-10T01:07:20.778Z,69.00
2022-08-10T01:10:21.521Z,68.70
2022-08-10T01:13:13.521Z,68.70
2022-08-10T01:16:06.313Z,69.30
2022-08-10T01:18:58.365Z,69.70
2022-08-10T01:22:14.493Z,69.80
2022-08-10T01:25:22.273Z,70.00
2022-08-10T01:28:21.345Z,70.00
2022-08-10T01:31:13.736Z,70.10
2022-08-10T01:34:06.688Z,70.40
2022-08-10T01:37:02.745Z,70.50
2022-08-10T01:39:55.393Z,70.60
2022-08-10T01:42:46.928Z,70.90
2022-08-10T01:45:45.234Z,71.10
2022-08-10T01:48:37.102Z,71.30
2022-08-10T01:51:31.047Z,71.50
2022-08-10T01:54:22.587Z,72.60
2022-08-10T01:57:12.821Z,71.90
2022-08-10T02:00:02.972Z,71.60
2022-08-10T02:02:54.251Z,72.10
2022-08-10T02:05:45.414Z,72.80
2022-08-10T02:08:34.223Z,72.20
2022-08-10T02:11:22.393Z,72.40
2022-08-10T02:14:12.071Z,72.30
2022-08-10T02:17:00.978Z,72.80
2022-08-10T02:19:49.346Z,73.80
2022-08-10T02:22:40.738Z,72.90
2022-08-10T02:25:40.738Z,73.10
2022-08-10T02:28:33.758Z,73.10
2022-08-10T02:31:25.137Z,73.00
2022-08-10T02:34:15.619Z,73.00
2022-08-10T02:37:10.650Z,72.90
2022-08-10T02:40:00.205Z,73.00
2022-08-10T02:45:24.534Z,82.50
2022-08-10T02:46:05.602Z,73.30
2022-08-10T02:49:01.216Z,73.60
2022-08-10T02:52:07.258Z,73.30
2022-08-10T02:55:06.012Z,73.30
2022-08-10T02:58:17.358Z,80.00
2022-08-10T03:01:10.882Z,73.30
2022-08-10T03:04:01.825Z,73.30
2022-08-10T03:06:56.109Z,73.30
2022-08-10T03:09:44.706Z,73.30
2022-08-10T03:12:38.778Z,73.50
2022-08-10T03:15:28.903Z,73.50
2022-08-10T03:18:17.551Z,73.50
2022-08-10T03:21:11.352Z,73.50
2022-08-10T03:24:03.322Z,73.60
2022-08-10T03:27:12.266Z,74.00
2022-08-10T03:30:29.918Z,72.90
2022-08-10T03:33:10.062Z,74.20
2022-08-10T03:36:40.580Z,73.90
2022-08-10T03:39:05.433Z,74.00
2022-08-10T03:41:57.424Z,74.00
2022-08-10T03:44:49.871Z,74.00
2022-08-10T03:47:42.666Z,74.30
2022-08-10T03:50:51.359Z,74.20
2022-08-10T03:54:05.557Z,74.10
2022-08-10T03:56:48.428Z,74.20
2022-08-10T03:59:36.714Z,74.30
2022-08-10T04:02:46.397Z,74.30
2022-08-10T04:05:38.670Z,74.30
2022-08-10T04:08:26.282Z,74.50
2022-08-10T04:11:14.013Z,74.60
2022-08-10T04:14:01.154Z,74.60
2022-08-10T04:16:48.352Z,74.60
2022-08-10T04:19:42.033Z,74.70
2022-08-10T04:25:20.971Z,74.00
2022-08-10T04:28:08.926Z,74.80
2022-08-10T04:30:58.507Z,74.70
2022-08-10T04:33:50.599Z,74.70
2022-08-10T04:36:38.667Z,74.80
2022-08-10T04:39:27.091Z,74.90
2022-08-10T04:42:14.410Z,74.90
2022-08-10T04:45:08.370Z,74.90
2022-08-10T04:48:00.421Z,75.00
2022-08-10T04:50:49.932Z,75.00
2022-08-10T04:54:04.630Z,75.10
2022-08-10T04:56:46.467Z,75.10
2022-08-10T04:59:33.752Z,74.90
2022-08-10T05:02:29.771Z,74.90
2022-08-10T05:05:26.139Z,75.00
2022-08-10T05:08:13.469Z,75.20
2022-08-10T05:11:00.726Z,75.00
2022-08-10T05:13:48.925Z,75.00
2022-08-10T05:16:37.453Z,74.80
2022-08-10T05:20:05.158Z,74.60
2022-08-10T05:22:31.577Z,74.40
2022-08-10T05:25:20.607Z,74.40
2022-08-10T05:28:08.092Z,74.00
2022-08-10T05:30:56.128Z,73.70
2022-08-10T05:33:43.498Z,73.80
2022-08-10T05:36:30.921Z,73.40
2022-08-10T05:39:25.219Z,73.40
2022-08-10T05:42:21.202Z,73.10
2022-08-10T05:45:17.352Z,72.50
2022-08-10T05:48:55.803Z,72.20
2022-08-10T05:51:13.440Z,71.70
2022-08-10T05:54:06.734Z,71.80
2022-08-10T05:56:58.108Z,71.60
2022-08-10T06:00:29.410Z,70.80
2022-08-10T06:03:03.041Z,70.60
2022-08-10T06:05:52.500Z,70.00
2022-08-10T06:08:42.308Z,70.00
2022-08-10T06:12:25.620Z,69.90
2022-08-10T06:14:59.856Z,69.30
2022-08-10T06:17:47.006Z,69.20
2022-08-10T06:20:49.961Z,68.60
2022-08-10T06:23:39.042Z,68.80
2022-08-10T06:26:26.219Z,68.30
2022-08-10T06:29:16.288Z,68.00
2022-08-10T06:32:06.163Z,67.20
2022-08-10T06:34:55.525Z,66.90
2022-08-10T06:37:51.497Z,66.60
2022-08-10T06:40:45.222Z,66.10
2022-08-10T06:43:33.645Z,66.10
2022-08-10T06:46:22.993Z,65.50
2022-08-10T06:49:11.993Z,64.90
2022-08-10T06:52:02.665Z,64.60
2022-08-10T06:54:56.844Z,64.70
2022-08-10T06:57:45.336Z,64.10
2022-08-10T07:00:47.725Z,63.90
2022-08-10T07:03:40.253Z,63.60
2022-08-10T07:06:29.860Z,63.10
2022-08-10T07:09:19.428Z,62.50
2022-08-10T07:12:10.693Z,62.40
2022-08-10T07:14:58.943Z,61.90
2022-08-10T07:17:47.571Z,61.20
2022-08-10T07:20:35.743Z,60.50
2022-08-10T07:23:55.819Z,59.90
2022-08-10T07:26:33.445Z,59.30
2022-08-10T07:29:52.958Z,58.80
2022-08-10T07:32:36.006Z,59.10
2022-08-10T07:35:24.228Z,59.20
2022-08-10T07:38:18.200Z,58.50
2022-08-10T07:41:09.298Z,57.60
2022-08-10T07:43:58.152Z,56.70
2022-08-10T07:46:51.170Z,56.40
2022-08-10T07:49:41.194Z,55.80
2022-08-10T07:52:29.347Z,54.90
2022-08-10T07:55:20.006Z,54.30
2022-08-10T07:58:31.045Z,54.30
2022-08-10T08:01:19.187Z,53.40
2022-08-10T08:04:11.242Z,52.90
2022-08-10T08:07:00.613Z,52.80
2022-08-10T08:09:57.752Z,51.90
2022-08-10T08:12:47.773Z,54.30
2022-08-10T08:16:18.225Z,51.40
2022-08-10T08:19:03.662Z,50.80
2022-08-10T08:24:07.806Z,49.70
2022-08-10T08:25:01.817Z,86.80
2022-08-10T08:27:53.370Z,48.70
2022-08-10T08:33:41.617Z,46.60
2022-08-10T08:36:31.169Z,47.20
2022-08-10T08:39:19.909Z,46.80
2022-08-10T08:42:27.632Z,46.60
2022-08-10T08:45:23.897Z,46.30
2022-08-10T08:48:34.445Z,45.50
2022-08-10T08:52:11.389Z,45.30
2022-08-10T08:54:59.438Z,44.80
2022-08-10T08:57:52.538Z,44.40
2022-08-10T09:00:43.561Z,44.20
2022-08-10T09:03:52.898Z,44.40
2022-08-10T09:06:54.147Z,44.60
2022-08-10T09:10:04.910Z,44.10
2022-08-10T09:12:58.600Z,44.00
2022-08-10T09:15:52.595Z,43.50
2022-08-10T09:18:49.452Z,43.00
2022-08-10T09:21:59.252Z,42.90
2022-08-10T09:25:02.103Z,43.00
2022-08-10T09:27:53.952Z,43.20
2022-08-10T09:31:10.937Z,43.30
2022-08-10T09:36:25.388Z,43.20
2022-08-10T09:37:21.709Z,42.90
2022-08-10T09:41:00.306Z,42.40
2022-08-10T09:43:37.933Z,41.80
2022-08-10T09:46:44.240Z,42.30
2022-08-10T09:49:54.984Z,41.40
2022-08-10T09:52:59.112Z,41.50
2022-08-10T09:56:18.431Z,42.10
2022-08-10T09:59:47.272Z,41.90
2022-08-10T10:02:28.431Z,41.30
2022-08-10T10:05:33.237Z,41.20
2022-08-10T10:08:29.189Z,41.80
2022-08-10T10:11:22.958Z,42.30
2022-08-10T10:14:22.943Z,41.90
2022-08-10T10:17:18.930Z,41.50
2022-08-10T10:20:16.359Z,41.40
2022-08-10T10:23:27.510Z,42.20
2022-08-10T10:26:25.023Z,42.90
2022-08-10T10:29:56.547Z,43.30
2022-08-10T10:32:46.115Z,43.00
2022-08-10T10:35:38.972Z,42.60
2022-08-10T10:38:30.949Z,43.00
2022-08-10T10:41:56.221Z,43.40
2022-08-10T10:44:48.272Z,43.70
2022-08-10T10:47:47.509Z,44.50
2022-08-10T10:50:45.305Z,44.20
2022-08-10T10:53:41.296Z,44.30
2022-08-10T10:56:37.208Z,44.30
2022-08-10T10:59:55.764Z,45.00
2022-08-10T11:02:55.111Z,44.10
2022-08-10T11:05:51.087Z,45.10
2022-08-10T11:08:43.810Z,44.10
2022-08-10T11:12:00.711Z,44.70
2022-08-10T11:14:54.060Z,44.70
2022-08-10T11:17:47.950Z,44.50
2022-08-10T11:20:43.869Z,44.60
2022-08-10T11:23:40.556Z,44.60
2022-08-10T11:26:34.547Z,44.40
2022-08-10T11:29:33.445Z,44.30
2022-08-10T11:32:27.317Z,44.20
2022-08-10T11:35:23.927Z,44.20
2022-08-10T11:38:32.899Z,45.00
2022-08-10T11:42:07.189Z,45.10
2022-08-10T11:44:50.252Z,44.20
2022-08-10T11:47:46.062Z,43.80
2022-08-10T11:50:38.241Z,43.90
2022-08-10T11:53:35.209Z,42.90
2022-08-10T11:56:32.841Z,43.10
2022-08-10T11:59:34.728Z,43.10
2022-08-10T12:02:24.486Z,43.40
2022-08-10T12:05:16.186Z,43.10
2022-08-10T12:10:04.462Z,42.40
2022-08-10T12:11:24.490Z,41.90
2022-08-10T12:14:21.895Z,42.20
2022-08-10T12:17:17.688Z,41.60
2022-08-10T12:20:10.920Z,42.20
2022-08-10T12:22:59.593Z,41.80
2022-08-10T12:25:58.732Z,41.90
2022-08-10T12:28:52.620Z,41.00
2022-08-10T12:31:45.094Z,41.30
2022-08-10T12:34:39.382Z,41.60
2022-08-10T12:37:34.733Z,40.80
2022-08-10T12:40:36.134Z,40.30
2022-08-10T12:44:07.365Z,39.70
2022-08-10T12:46:41.667Z,40.10
2022-08-10T12:49:34.427Z,39.90
2022-08-10T12:52:30.461Z,40.00
2022-08-10T12:55:19.077Z,40.70
2022-08-10T12:58:57.061Z,40.10
2022-08-10T13:01:17.837Z,40.10
2022-08-10T13:04:21.454Z,40.40
2022-08-10T13:08:24.124Z,41.00
2022-08-10T13:10:23.174Z,40.00
2022-08-10T13:13:14.807Z,40.00
2022-08-10T13:16:02.995Z,40.10
2022-08-10T13:18:52.875Z,40.50
2022-08-10T13:21:41.428Z,40.20
2022-08-10T13:24:33.987Z,40.30
2022-08-10T13:28:00.948Z,40.70
2022-08-10T13:30:40.650Z,40.10
2022-08-10T13:34:41.189Z,40.00
2022-08-10T13:36:40.839Z,39.10
2022-08-10T13:39:58.318Z,61.40
2022-08-10T13:42:45.535Z,62.80
2022-08-10T13:45:33.811Z,60.60
2022-08-10T13:48:23.161Z,58.50
2022-08-10T13:51:15.365Z,53.20
2022-08-10T13:54:03.873Z,42.40
2022-08-10T13:56:53.313Z,38.80
2022-08-10T14:08:42.522Z,62.00
2022-08-10T14:11:32.202Z,57.80
2022-08-10T14:14:21.171Z,57.10
2022-08-10T14:17:10.976Z,59.00
2022-08-10T14:19:59.762Z,59.80
2022-08-10T14:22:50.612Z,46.90
2022-08-10T14:25:48.984Z,37.70
2022-08-10T14:28:47.476Z,37.80
2022-08-10T14:31:39.324Z,38.00
2022-08-10T14:36:16.160Z,38.10
2022-08-10T14:38:13.843Z,37.10
2022-08-10T14:41:05.156Z,37.10
2022-08-10T14:43:57.850Z,37.70
2022-08-10T14:46:51.658Z,37.30
2022-08-10T14:49:56.932Z,37.20
2022-08-10T14:52:51.572Z,37.30
2022-08-10T14:55:57.812Z,37.80
2022-08-10T14:58:59.335Z,38.30
2022-08-10T15:02:39.038Z,38.10
2022-08-10T15:05:09.440Z,37.00
2022-08-10T15:07:59.786Z,37.20
2022-08-10T15:10:51.166Z,36.80
2022-08-10T15:13:43.595Z,36.50
2022-08-10T15:16:54.548Z,36.20
2022-08-10T15:20:02.231Z,36.60
2022-08-10T15:22:55.829Z,37.20
2022-08-10T15:25:57.943Z,37.80
2022-08-10T15:29:22.737Z,37.60
2022-08-10T15:32:08.272Z,37.00
2022-08-10T15:35:14.114Z,37.00
2022-08-10T15:38:06.782Z,36.30
2022-08-10T15:40:58.349Z,36.40
2022-08-10T15:43:48.357Z,36.40
2022-08-10T15:46:45.409Z,36.40
2022-08-10T15:49:41.971Z,36.10
2022-08-10T15:53:02.066Z,36.30
2022-08-10T15:55:51.615Z,36.60
2022-08-10T15:58:48.405Z,36.50
2022-08-10T16:02:03.897Z,36.50
2022-08-10T16:04:51.610Z,36.50
2022-08-10T16:07:45.851Z,36.60
2022-08-10T16:10:45.142Z,36.60
2022-08-10T16:13:51.015Z,36.90
2022-08-10T16:16:55.141Z,37.10
2022-08-10T16:19:51.022Z,37.10
2022-08-10T16:22:38.180Z,37.30
2022-08-10T16:25:51.560Z,37.10
2022-08-10T16:37:57.426Z,37.60
2022-08-10T16:40:47.924Z,37.70
2022-08-10T16:43:36.150Z,37.60
2022-08-10T16:46:23.553Z,37.30
2022-08-10T16:49:12.614Z,37.20
2022-08-10T16:52:00.296Z,37.30
2022-08-10T16:54:50.917Z,37.10
2022-08-10T16:57:41.481Z,37.50
2022-08-10T17:00:30.510Z,38.00
2022-08-10T17:03:22.579Z,38.20
2022-08-10T17:06:31.702Z,38.10
2022-08-10T17:09:20.253Z,38.30
2022-08-10T17:12:11.902Z,38.30
2022-08-10T17:15:09.148Z,38.20
2022-08-10T17:18:01.060Z,38.20
2022-08-10T17:20:48.934Z,38.00
2022-08-10T17:23:38.976Z,37.60
2022-08-10T17:26:36.986Z,37.40
2022-08-10T17:29:59.098Z,37.20
2022-08-10T17:32:45.121Z,37.20
2022-08-10T17:35:35.769Z,36.90
2022-08-10T17:38:25.329Z,36.80
2022-08-10T17:41:14.993Z,36.70
2022-08-10T17:44:05.163Z,36.80
2022-08-10T17:46:55.081Z,37.00
2022-08-10T17:49:44.694Z,37.00
2022-08-10T17:52:34.288Z,37.10
2022-08-10T17:55:22.624Z,37.50
2022-08-10T17:58:16.143Z,38.40
2022-08-10T18:01:40.340Z,38.20
2022-08-10T18:04:19.329Z,38.50
2022-08-10T18:07:11.745Z,38.80
2022-08-10T18:10:00.391Z,39.30
2022-08-10T18:12:51.307Z,39.70
2022-08-10T18:15:39.790Z,39.90
2022-08-10T18:18:30.771Z,40.50
2022-08-10T18:21:23.961Z,40.90
2022-08-10T18:24:18.896Z,41.30
2022-08-10T18:27:09.159Z,41.80
2022-08-10T18:29:59.348Z,42.20
2022-08-10T18:32:51.210Z,42.50
2022-08-10T18:35:39.933Z,43.10
2022-08-10T18:38:29.498Z,43.20
2022-08-10T18:41:20.648Z,43.40
2022-08-10T18:44:13.758Z,43.60
2022-08-10T18:47:05.585Z,43.80
2022-08-10T18:50:01.027Z,43.90
2022-08-10T18:52:53.516Z,44.00
2022-08-10T18:55:46.223Z,44.20
2022-08-10T18:59:03.317Z,44.20
2022-08-10T19:02:08.477Z,44.30
2022-08-10T19:05:30.966Z,44.40
2022-08-10T19:08:35.673Z,45.00
2022-08-10T19:11:40.846Z,44.80
2022-08-10T19:14:36.078Z,45.50
2022-08-10T19:18:05.875Z,45.20
2022-08-10T19:20:47.530Z,45.80
2022-08-10T19:23:44.633Z,45.60
2022-08-10T19:26:46.017Z,45.40
2022-08-10T19:30:10.234Z,45.60
2022-08-10T19:33:03.735Z,45.60
2022-08-10T19:36:05.410Z,45.70
2022-08-10T19:39:06.307Z,46.10
2022-08-10T19:41:59.973Z,46.20
2022-08-10T19:45:07.605Z,46.40
2022-08-10T19:47:59.755Z,47.40
2022-08-10T19:50:55.491Z,47.00
2022-08-10T19:53:54.292Z,47.30
2022-08-10T19:56:55.905Z,47.50
2022-08-10T20:00:16.088Z,47.90
2022-08-10T20:03:12.445Z,48.10
2022-08-10T20:06:19.169Z,48.50
2022-08-10T20:09:15.761Z,48.70
2022-08-10T20:12:05.603Z,48.90
2022-08-10T20:15:04.148Z,49.60
2022-08-10T20:17:57.841Z,49.60
2022-08-10T20:21:20.134Z,49.80
2022-08-10T20:24:12.318Z,50.00
2022-08-10T20:27:58.127Z,50.20
2022-08-10T20:30:15.673Z,50.40
2022-08-10T20:33:09.548Z,50.60
2022-08-10T20:36:04.352Z,50.70
2022-08-10T20:39:03.909Z,50.80
2022-08-10T20:42:02.888Z,51.00
2022-08-10T20:45:00.127Z,51.20
2022-08-10T20:47:57.587Z,51.40
2022-08-10T20:50:49.004Z,51.50
2022-08-10T20:53:43.633Z,51.80
2022-08-10T20:56:42.583Z,52.20
2022-08-10T21:00:03.894Z,52.40
2022-08-10T21:03:06.574Z,52.40
2022-08-10T21:06:07.066Z,53.40
2022-08-10T21:09:04.735Z,52.80
2022-08-10T21:12:16.182Z,53.00
2022-08-10T21:15:15.895Z,53.10
2022-08-10T21:18:20.503Z,53.30
2022-08-10T21:24:45.309Z,53.60
2022-08-10T21:25:42.187Z,53.40
2022-08-10T21:27:55.108Z,53.80
2022-08-10T21:30:53.244Z,54.00
2022-08-10T21:33:51.622Z,54.10
2022-08-10T21:36:52.383Z,54.40
2022-08-10T21:39:51.505Z,54.60
2022-08-10T21:43:08.239Z,54.60
2022-08-10T21:46:20.398Z,54.80
2022-08-10T21:49:36.916Z,55.20
2022-08-10T21:52:53.438Z,55.20
2022-08-10T21:56:07.173Z,55.40
2022-08-10T21:59:21.613Z,55.50
2022-08-10T22:05:57.925Z,55.90
2022-08-10T22:09:06.000Z,55.90
2022-08-10T22:12:24.896Z,56.00
2022-08-10T22:16:03.771Z,56.10
2022-08-10T22:19:14.795Z,56.20
2022-08-10T22:22:30.397Z,56.60
2022-08-10T22:25:53.069Z,56.50
2022-08-10T22:29:04.201Z,56.50
2022-08-10T22:31:25.744Z,55.70
2022-08-10T22:32:18.336Z,56.60
2022-08-10T22:35:46.730Z,56.70
2022-08-10T22:39:11.539Z,56.90
2022-08-10T22:42:26.610Z,67.20
2022-08-10T22:45:34.991Z,76.90
2022-08-10T22:48:39.708Z,79.40
2022-08-10T22:54:39.455Z,57.20
2022-08-10T22:57:44.510Z,57.90
2022-08-10T23:00:31.705Z,57.80
2022-08-10T23:03:21.864Z,58.20
2022-08-10T23:06:13.497Z,58.20
2022-08-10T23:09:02.968Z,58.20
2022-08-10T23:11:54.107Z,58.40
2022-08-10T23:15:00.152Z,58.50
2022-08-10T23:18:11.198Z,58.50
2022-08-10T23:21:00.377Z,58.60
2022-08-10T23:23:47.578Z,59.00
2022-08-10T23:26:35.433Z,59.10
2022-08-10T23:29:24.493Z,59.30
2022-08-10T23:32:17.942Z,59.60
2022-08-10T23:36:31.268Z,59.70
2022-08-10T23:38:24.945Z,59.80
2022-08-10T23:41:13.188Z,60.30
2022-08-10T23:44:04.405Z,60.40
2022-08-10T23:46:54.969Z,60.60
2022-08-10T23:49:44.267Z,60.70
2022-08-10T23:52:34.757Z,60.90
2022-08-10T23:55:25.519Z,61.20
2022-08-10T23:58:33.479Z,61.40
